createdAt,value
2022-11-24T00:01:29.198Z,27.83
2022-11-24T00:04:01.812Z,14.32
2022-11-24T00:06:30.157Z,13.05
2022-11-24T00:08:57.219Z,20.70
2022-11-24T00:11:32.817Z,15.43
2022-11-24T00:14:00.139Z,21.77
2022-11-24T00:16:32.530Z,21.55
2022-11-24T00:19:01.304Z,20.30
2022-11-24T00:21:30.435Z,19.65
2022-11-24T00:23:58.126Z,19.05
2022-11-24T00:26:27.612Z,12.25
2022-11-24T00:28:55.877Z,17.73
2022-11-24T00:31:24.323Z,17.13
2022-11-24T00:33:54.047Z,15.63
2022-11-24T00:36:23.094Z,14.35
2022-11-24T00:38:55.457Z,15.50
2022-11-24T00:41:22.735Z,14.75
2022-11-24T00:43:49.262Z,10.07
2022-11-24T00:46:15.983Z,10.95
2022-11-24T00:48:42.874Z,8.82
2022-11-24T00:51:12.392Z,7.80
2022-11-24T00:53:39.343Z,15.95
2022-11-24T00:56:06.905Z,10.43
2022-11-24T00:58:33.908Z,11.85
2022-11-24T01:01:28.238Z,11.10
2022-11-24T01:03:55.804Z,12.32
2022-11-24T01:06:24.869Z,14.98
2022-11-24T01:08:51.955Z,12.10
2022-11-24T01:11:27.801Z,18.27
2022-11-24T01:13:57.753Z,16.63
2022-11-24T01:16:28.426Z,14.52
2022-11-24T01:18:55.269Z,18.08
2022-11-24T01:21:22.553Z,18.17
2022-11-24T01:23:49.734Z,11.90
2022-11-24T01:26:19.513Z,13.73
2022-11-24T01:28:47.480Z,19.17
2022-11-24T01:31:16.149Z,11.38
2022-11-24T01:33:43.318Z,11.95
2022-11-24T01:36:09.918Z,16.73
2022-11-24T01:38:36.480Z,17.80
2022-11-24T01:41:02.989Z,20.50
2022-11-24T01:43:29.546Z,15.00
2022-11-24T01:45:57.340Z,18.30
2022-11-24T01:48:36.385Z,12.20
2022-11-24T01:51:18.979Z,10.30
2022-11-24T01:53:50.902Z,9.75
2022-11-24T01:56:18.655Z,15.20
2022-11-24T01:58:47.190Z,13.63
2022-11-24T02:01:13.850Z,15.82
2022-11-24T02:03:44.124Z,17.92
2022-11-24T02:06:20.484Z,13.13
2022-11-24T02:08:55.825Z,12.93
2022-11-24T02:11:25.058Z,11.55
2022-11-24T02:13:53.492Z,12.43
2022-11-24T02:16:20.447Z,15.68
2022-11-24T02:18:47.240Z,15.35
2022-11-24T02:21:15.767Z,14.63
2022-11-24T02:23:55.415Z,18.77
2022-11-24T02:26:40.785Z,11.43
2022-11-24T02:29:08.187Z,18.23
2022-11-24T02:31:34.959Z,12.45
2022-11-24T02:34:01.793Z,11.50
2022-11-24T02:36:28.329Z,17.75
2022-11-24T02:38:54.913Z,13.43
2022-11-24T02:41:24.012Z,8.80
2022-11-24T02:43:56.533Z,12.48
2022-11-24T02:46:23.240Z,16.40
2022-11-24T02:48:50.400Z,13.52
2022-11-24T02:51:18.039Z,11.77
2022-11-24T02:53:45.706Z,13.55
2022-11-24T02:56:12.788Z,19.30
2022-11-24T02:58:39.993Z,17.92
2022-11-24T03:01:06.679Z,14.95
2022-11-24T03:03:33.282Z,8.73
2022-11-24T03:06:00.769Z,9.13
2022-11-24T03:08:27.779Z,10.43
2022-11-24T03:10:54.682Z,10.85
2022-11-24T03:13:21.721Z,21.48
2022-11-24T03:15:48.733Z,16.45
2022-11-24T03:18:15.464Z,9.95
2022-11-24T03:20:41.966Z,9.80
2022-11-24T03:23:08.994Z,8.88
2022-11-24T03:25:36.131Z,12.05
2022-11-24T03:28:03.185Z,15.38
2022-11-24T03:30:30.418Z,11.10
2022-11-24T03:32:56.931Z,12.18
2022-11-24T03:35:23.760Z,13.25
2022-11-24T03:37:50.905Z,9.15
2022-11-24T03:40:19.295Z,11.10
2022-11-24T03:42:45.854Z,11.95
2022-11-24T03:45:38.040Z,9.95
2022-11-24T03:47:59.544Z,13.88
2022-11-24T03:50:26.045Z,9.55
2022-11-24T03:52:52.556Z,11.57
2022-11-24T03:55:20.089Z,9.73
2022-11-24T03:57:46.621Z,10.05
2022-11-24T04:00:14.086Z,13.23
2022-11-24T04:02:40.638Z,6.60
2022-11-24T04:05:09.199Z,8.32
2022-11-24T04:07:35.755Z,5.47
2022-11-24T04:10:02.277Z,8.43
2022-11-24T04:12:44.050Z,6.00
2022-11-24T04:15:17.777Z,4.40
2022-11-24T04:17:45.502Z,3.97
2022-11-24T04:20:13.746Z,5.72
2022-11-24T04:22:40.777Z,8.77
2022-11-24T04:25:08.422Z,8.98
2022-11-24T04:27:36.966Z,9.20
2022-11-24T04:30:07.997Z,2.50
2022-11-24T04:32:35.125Z,8.45
2022-11-24T04:35:01.726Z,5.55
2022-11-24T04:37:28.254Z,10.13
2022-11-24T04:39:55.327Z,3.53
2022-11-24T04:42:22.444Z,5.43
2022-11-24T04:44:49.491Z,5.57
2022-11-24T04:47:22.652Z,5.75
2022-11-24T04:49:50.068Z,5.63
2022-11-24T04:52:17.932Z,13.05
2022-11-24T04:54:45.661Z,6.97
2022-11-24T04:57:23.443Z,8.45
2022-11-24T04:59:51.333Z,11.98
2022-11-24T05:02:18.341Z,6.90
2022-11-24T05:04:46.091Z,6.35
2022-11-24T05:07:18.857Z,11.23
2022-11-24T05:10:05.483Z,10.38
2022-11-24T05:12:32.417Z,9.20
2022-11-24T05:15:01.410Z,8.23
2022-11-24T05:17:33.031Z,11.43
2022-11-24T05:20:00.306Z,8.73
2022-11-24T05:22:29.425Z,7.90
2022-11-24T05:24:56.643Z,10.88
2022-11-24T05:27:23.674Z,5.75
2022-11-24T05:29:50.325Z,13.63
2022-11-24T05:32:16.930Z,15.05
2022-11-24T05:34:43.440Z,11.55
2022-11-24T05:37:10.019Z,8.70
2022-11-24T05:39:37.068Z,10.38
2022-11-24T05:42:25.962Z,7.30
2022-11-24T05:44:53.540Z,12.48
2022-11-24T05:47:20.264Z,7.05
2022-11-24T05:49:47.069Z,6.35
2022-11-24T05:52:13.969Z,3.63
2022-11-24T05:54:41.086Z,3.80
2022-11-24T05:57:07.844Z,4.35
2022-11-24T05:59:34.874Z,7.32
2022-11-24T06:02:01.622Z,6.78
2022-11-24T06:04:28.288Z,3.50
2022-11-24T06:06:54.909Z,7.47
2022-11-24T06:09:21.441Z,2.80
2022-11-24T06:11:48.929Z,4.55
2022-11-24T06:14:15.902Z,3.75
2022-11-24T06:16:43.009Z,2.83
2022-11-24T06:19:10.862Z,2.35
2022-11-24T06:21:37.824Z,1.58
2022-11-24T06:24:05.363Z,3.72
2022-11-24T06:26:31.951Z,1.42
2022-11-24T06:28:59.267Z,2.40
2022-11-24T06:31:26.578Z,3.90
2022-11-24T06:33:53.709Z,2.35
2022-11-24T06:36:20.474Z,1.40
2022-11-24T06:38:47.220Z,0.38
2022-11-24T06:41:16.008Z,2.33
2022-11-24T06:43:43.162Z,3.33
2022-11-24T06:46:10.267Z,2.75
2022-11-24T06:48:37.602Z,4.80
2022-11-24T06:51:08.616Z,0.95
2022-11-24T06:53:39.481Z,2.35
2022-11-24T06:56:16.243Z,3.67
2022-11-24T06:58:48.275Z,1.30
2022-11-24T07:01:17.220Z,2.25
2022-11-24T07:03:44.192Z,1.85
2022-11-24T07:06:10.785Z,2.05
2022-11-24T07:08:37.296Z,1.45
2022-11-24T07:11:08.215Z,1.13
2022-11-24T07:13:35.189Z,5.03
2022-11-24T07:16:12.114Z,1.60
2022-11-24T07:18:38.738Z,1.33
2022-11-24T07:21:05.778Z,1.88
2022-11-24T07:23:32.802Z,3.92
2022-11-24T07:26:03.692Z,1.95
2022-11-24T07:28:33.864Z,2.28
2022-11-24T07:31:09.084Z,1.80
2022-11-24T07:33:36.672Z,1.88
2022-11-24T07:36:04.689Z,2.13
2022-11-24T07:38:31.989Z,1.85
2022-11-24T07:41:02.004Z,9.48
2022-11-24T07:43:30.792Z,7.45
2022-11-24T07:45:57.747Z,2.63
2022-11-24T07:48:24.448Z,4.15
2022-11-24T07:50:55.820Z,3.88
2022-11-24T07:53:23.164Z,4.70
2022-11-24T07:55:59.795Z,3.50
2022-11-24T07:58:32.398Z,3.05
2022-11-24T08:01:00.133Z,2.03
2022-11-24T08:03:27.007Z,3.72
2022-11-24T08:08:47.618Z,4.20
2022-11-24T08:11:17.163Z,4.20
2022-11-24T08:13:44.404Z,4.45
2022-11-24T08:16:13.805Z,4.07
2022-11-24T08:18:40.823Z,2.40
2022-11-24T08:21:08.797Z,6.70
2022-11-24T08:23:35.937Z,6.35
2022-11-24T08:26:13.720Z,3.22
2022-11-24T08:28:40.255Z,6.32
2022-11-24T08:31:18.843Z,7.15
2022-11-24T08:33:46.815Z,5.20
2022-11-24T08:36:16.855Z,8.82
2022-11-24T08:38:44.807Z,7.07
2022-11-24T08:41:13.626Z,2.65
2022-11-24T08:43:40.613Z,4.18
2022-11-24T08:46:10.036Z,5.75
2022-11-24T08:48:36.926Z,4.03
2022-11-24T08:51:09.110Z,4.18
2022-11-24T08:53:35.662Z,3.80
2022-11-24T08:56:03.775Z,4.45
2022-11-24T08:58:33.449Z,5.88
2022-11-24T09:01:15.193Z,6.85
2022-11-24T09:03:49.746Z,5.65
2022-11-24T09:06:23.616Z,6.57
2022-11-24T09:08:50.925Z,4.35
2022-11-24T09:11:18.209Z,7.53
2022-11-24T09:13:45.399Z,7.93
2022-11-24T09:16:17.221Z,7.22
2022-11-24T09:18:45.226Z,8.90
2022-11-24T09:21:17.436Z,7.90
2022-11-24T09:23:45.330Z,10.23
2022-11-24T09:26:15.897Z,7.97
2022-11-24T09:28:43.140Z,5.70
2022-11-24T09:31:12.303Z,11.70
2022-11-24T09:33:40.135Z,6.70
2022-11-24T09:36:07.758Z,5.25
2022-11-24T09:38:34.443Z,10.63
2022-11-24T09:41:15.246Z,6.05
2022-11-24T09:43:55.730Z,13.80
2022-11-24T09:46:32.938Z,8.80
2022-11-24T09:49:03.642Z,7.20
2022-11-24T09:51:32.481Z,3.50
2022-11-24T09:54:09.404Z,11.00
2022-11-24T09:56:40.637Z,7.03
2022-11-24T09:59:16.162Z,8.27
2022-11-24T10:01:46.147Z,10.55
2022-11-24T10:04:20.921Z,8.95
2022-11-24T10:07:15.290Z,7.15
2022-11-24T10:10:13.949Z,7.65
2022-11-24T10:12:46.886Z,8.52
2022-11-24T10:15:28.135Z,10.63
2022-11-24T10:18:19.119Z,13.05
2022-11-24T10:21:28.176Z,13.13
2022-11-24T10:24:20.123Z,13.32
2022-11-24T10:27:10.906Z,10.57
2022-11-24T10:29:40.837Z,14.70
2022-11-24T10:32:26.395Z,10.30
2022-11-24T10:34:55.204Z,13.30
2022-11-24T10:37:34.007Z,10.50
2022-11-24T10:40:33.332Z,13.82
2022-11-24T10:43:01.082Z,12.35
2022-11-24T10:45:29.145Z,12.88
2022-11-24T10:47:57.795Z,12.98
2022-11-24T10:50:27.821Z,7.18
2022-11-24T10:53:07.155Z,8.10
2022-11-24T10:56:06.286Z,11.07
2022-11-24T10:58:38.042Z,8.80
2022-11-24T11:01:14.802Z,13.63
2022-11-24T11:03:47.921Z,10.02
2022-11-24T11:06:28.656Z,11.27
2022-11-24T11:09:07.856Z,14.80
2022-11-24T11:11:35.927Z,12.23
2022-11-24T11:14:04.988Z,14.05
2022-11-24T11:16:36.767Z,10.52
2022-11-24T11:19:20.268Z,14.38
2022-11-24T11:22:05.136Z,13.93
2022-11-24T11:24:32.209Z,7.97
2022-11-24T11:27:06.030Z,12.70
2022-11-24T11:35:12.719Z,10.88
2022-11-24T11:37:39.740Z,11.02
2022-11-24T11:40:16.391Z,10.32
2022-11-24T11:43:03.932Z,9.73
2022-11-24T11:45:39.397Z,16.02
2022-11-24T11:48:17.853Z,13.63
2022-11-24T11:51:27.072Z,11.60
2022-11-24T11:54:19.217Z,19.35
2022-11-24T11:57:00.854Z,12.85
2022-11-24T12:00:03.215Z,14.98
2022-11-24T12:02:39.054Z,9.73
2022-11-24T12:05:18.472Z,9.23
2022-11-24T12:07:53.952Z,15.68
2022-11-24T12:10:32.694Z,13.80
2022-11-24T12:14:04.524Z,13.07
2022-11-24T12:16:55.817Z,16.85
2022-11-24T12:19:33.842Z,10.48
2022-11-24T12:22:00.434Z,11.90
2022-11-24T12:24:30.500Z,18.42
2022-11-24T12:27:11.742Z,17.63
2022-11-24T12:29:53.746Z,17.08
2022-11-24T12:32:35.410Z,14.15
2022-11-24T12:35:29.543Z,19.90
2022-11-24T12:37:56.051Z,12.30
2022-11-24T12:40:25.539Z,16.23
2022-11-24T12:43:21.561Z,10.63
2022-11-24T12:46:08.854Z,13.23
2022-11-24T12:49:02.519Z,14.55
2022-11-24T12:51:53.432Z,13.70
2022-11-24T12:54:22.302Z,17.27
2022-11-24T12:57:15.045Z,15.88
2022-11-24T13:00:07.433Z,15.45
2022-11-24T13:02:59.143Z,21.55
2022-11-24T13:05:31.573Z,16.85
2022-11-24T13:08:01.558Z,13.05
2022-11-24T13:13:49.871Z,20.55
2022-11-24T13:16:35.641Z,21.38
2022-11-24T13:19:14.795Z,15.50
2022-11-24T13:21:41.552Z,17.42
2022-11-24T13:24:17.791Z,18.55
2022-11-24T13:26:51.309Z,10.77
2022-11-24T13:29:34.984Z,12.30
2022-11-24T13:32:04.190Z,14.80
2022-11-24T13:34:42.935Z,19.58
2022-11-24T13:37:35.031Z,19.92
2022-11-24T13:40:22.513Z,21.58
2022-11-24T13:42:55.014Z,15.95
2022-11-24T13:45:41.178Z,18.38
2022-11-24T13:48:20.327Z,13.25
2022-11-24T13:50:50.797Z,13.90
2022-11-24T13:53:40.841Z,16.20
2022-11-24T13:56:13.326Z,13.93
2022-11-24T13:58:41.060Z,16.00
2022-11-24T14:01:07.510Z,14.48
2022-11-24T14:03:55.358Z,18.05
2022-11-24T14:06:34.482Z,11.60
2022-11-24T14:09:17.361Z,15.80
2022-11-24T14:11:46.742Z,13.02
2022-11-24T14:14:20.613Z,14.55
2022-11-24T14:16:47.379Z,15.57
2022-11-24T14:19:18.674Z,14.45
2022-11-24T14:21:45.543Z,11.43
2022-11-24T14:24:23.236Z,14.73
2022-11-24T14:26:50.945Z,13.52
2022-11-24T14:29:22.050Z,16.13
2022-11-24T14:31:57.054Z,18.58
2022-11-24T14:36:54.636Z,17.85
2022-11-24T14:39:23.475Z,15.05
2022-11-24T14:42:00.361Z,32.40
2022-11-24T14:44:29.739Z,18.42
2022-11-24T14:47:30.422Z,16.77
2022-11-24T14:50:13.803Z,11.52
2022-11-24T14:52:55.154Z,17.33
2022-11-24T14:55:28.136Z,17.58
2022-11-24T14:57:55.468Z,19.08
2022-11-24T15:00:24.833Z,18.13
2022-11-24T15:03:00.472Z,14.98
2022-11-24T15:05:57.135Z,22.20
2022-11-24T15:08:26.585Z,12.55
2022-11-24T15:11:02.582Z,9.93
2022-11-24T15:13:33.513Z,15.13
2022-11-24T15:16:04.032Z,18.45
2022-11-24T15:18:39.679Z,13.20
2022-11-24T15:21:06.441Z,9.18
2022-11-24T15:23:35.096Z,13.18
2022-11-24T15:26:01.732Z,16.95
2022-11-24T15:28:29.762Z,11.30
2022-11-24T15:31:04.233Z,13.60
2022-11-24T15:33:31.716Z,13.30
2022-11-24T15:35:59.325Z,16.10
2022-11-24T15:38:26.157Z,17.48
2022-11-24T15:40:55.228Z,14.40
2022-11-24T15:43:36.398Z,14.20
2022-11-24T15:46:04.740Z,14.45
2022-11-24T15:48:31.624Z,13.60
2022-11-24T15:50:59.696Z,10.05
2022-11-24T15:53:35.355Z,17.05
2022-11-24T15:56:03.415Z,13.52
2022-11-24T15:58:29.974Z,11.40
2022-11-24T16:00:56.664Z,12.32
2022-11-24T16:06:19.068Z,15.27
2022-11-24T16:08:50.148Z,17.23
2022-11-24T16:11:16.668Z,13.30
2022-11-24T16:13:50.091Z,16.13
2022-11-24T16:16:19.572Z,29.48
2022-11-24T16:18:46.194Z,25.08
2022-11-24T16:21:12.670Z,20.45
2022-11-24T16:23:39.731Z,11.15
2022-11-24T16:26:06.938Z,13.00
2022-11-24T16:28:33.943Z,13.18
2022-11-24T16:31:00.551Z,16.10
2022-11-24T16:33:29.440Z,15.48
2022-11-24T16:35:55.990Z,7.85
2022-11-24T16:38:22.585Z,13.65
2022-11-24T16:40:54.061Z,16.08
2022-11-24T16:43:21.112Z,16.23
2022-11-24T16:46:03.174Z,18.35
2022-11-24T16:48:35.758Z,13.27
2022-11-24T16:51:10.121Z,13.05
2022-11-24T16:53:36.989Z,17.70
2022-11-24T16:56:03.545Z,16.45
2022-11-24T16:58:30.099Z,14.82
2022-11-24T17:01:03.980Z,23.27
2022-11-24T17:03:37.100Z,16.45
2022-11-24T17:06:07.226Z,27.43
2022-11-24T17:08:35.637Z,13.05
2022-11-24T17:11:10.186Z,18.00
2022-11-24T17:13:37.088Z,19.85
2022-11-24T17:16:05.646Z,9.30
2022-11-24T17:18:32.265Z,18.83
2022-11-24T17:21:03.224Z,14.30
2022-11-24T17:23:33.153Z,8.13
2022-11-24T17:26:07.844Z,15.68
2022-11-24T17:28:35.552Z,13.68
2022-11-24T17:31:08.639Z,17.17
2022-11-24T17:33:35.797Z,22.92
2022-11-24T17:36:05.435Z,23.40
2022-11-24T17:38:32.199Z,21.15
2022-11-24T17:40:59.098Z,16.15
2022-11-24T17:43:26.195Z,13.50
2022-11-24T17:45:54.790Z,11.10
2022-11-24T17:48:22.100Z,25.88
2022-11-24T17:50:49.143Z,12.82
2022-11-24T17:53:16.285Z,14.93
2022-11-24T17:55:43.365Z,18.52
2022-11-24T17:58:10.354Z,19.42
2022-11-24T18:00:36.917Z,13.50
2022-11-24T18:03:03.502Z,16.40
2022-11-24T18:05:30.162Z,20.13
2022-11-24T18:07:56.740Z,17.25
2022-11-24T18:10:23.325Z,11.25
2022-11-24T18:12:49.853Z,11.80
2022-11-24T18:15:16.954Z,16.45
2022-11-24T18:17:43.557Z,15.80
2022-11-24T18:20:10.623Z,18.25
2022-11-24T18:23:04.025Z,18.55
2022-11-24T18:25:24.185Z,19.38
2022-11-24T18:27:50.680Z,18.02
2022-11-24T18:30:18.045Z,14.35
2022-11-24T18:32:44.637Z,16.00
2022-11-24T18:35:11.177Z,11.93
2022-11-24T18:37:43.426Z,8.45
2022-11-24T18:40:10.246Z,16.63
2022-11-24T18:42:37.187Z,15.18
2022-11-24T18:45:04.949Z,9.93
2022-11-24T18:47:31.492Z,16.30
2022-11-24T18:50:00.278Z,12.32
2022-11-24T18:52:27.321Z,14.25
2022-11-24T18:54:53.879Z,17.52
2022-11-24T18:57:20.426Z,24.10
2022-11-24T18:59:46.939Z,22.95
2022-11-24T19:02:13.573Z,17.52
2022-11-24T19:04:40.330Z,21.77
2022-11-24T19:07:06.841Z,13.93
2022-11-24T19:09:33.455Z,16.13
2022-11-24T19:12:00.080Z,11.02
2022-11-24T19:14:26.660Z,22.42
2022-11-24T19:16:53.819Z,16.92
2022-11-24T19:19:20.304Z,10.75
2022-11-24T19:21:46.792Z,20.80
2022-11-24T19:24:13.538Z,19.55
2022-11-24T19:26:41.118Z,17.77
2022-11-24T19:29:08.420Z,14.30
2022-11-24T19:31:35.726Z,16.67
2022-11-24T19:34:03.524Z,11.40
2022-11-24T19:36:30.390Z,13.45
2022-11-24T19:38:58.242Z,17.77
2022-11-24T19:41:27.619Z,13.30
2022-11-24T19:43:54.998Z,14.35
2022-11-24T19:46:23.017Z,9.32
2022-11-24T19:48:51.608Z,19.20
2022-11-24T19:51:21.241Z,18.00
2022-11-24T19:53:48.139Z,18.65
2022-11-24T19:56:20.118Z,13.15
2022-11-24T19:58:47.806Z,11.77
2022-11-24T20:01:20.093Z,10.88
2022-11-24T20:03:49.484Z,10.95
2022-11-24T20:06:16.441Z,12.77
2022-11-24T20:08:44.092Z,10.50
2022-11-24T20:11:13.478Z,8.35
2022-11-24T20:13:41.909Z,10.82
2022-11-24T20:16:11.518Z,10.38
2022-11-24T20:18:42.254Z,7.38
2022-11-24T20:21:20.237Z,17.92
2022-11-24T20:23:52.961Z,12.70
2022-11-24T20:26:20.798Z,10.05
2022-11-24T20:28:47.690Z,15.70
2022-11-24T20:31:17.455Z,13.80
2022-11-24T20:33:47.980Z,13.02
2022-11-24T20:36:20.174Z,9.05
2022-11-24T20:38:47.772Z,11.02
2022-11-24T20:41:16.846Z,10.63
2022-11-24T20:43:44.652Z,9.77
2022-11-24T20:46:17.879Z,16.05
2022-11-24T20:48:44.941Z,11.88
2022-11-24T20:51:13.790Z,17.77
2022-11-24T20:53:41.388Z,11.45
2022-11-24T20:56:11.733Z,12.10
2022-11-24T20:58:38.578Z,11.82
2022-11-24T21:01:17.602Z,7.95
2022-11-24T21:03:45.483Z,14.07
2022-11-24T21:06:14.362Z,12.80
2022-11-24T21:08:42.310Z,12.82
2022-11-24T21:11:11.374Z,10.27
2022-11-24T21:13:39.832Z,13.02
2022-11-24T21:16:26.851Z,19.10
2022-11-24T21:18:56.423Z,9.20
2022-11-24T21:21:25.130Z,19.17
2022-11-24T21:23:51.896Z,7.22
2022-11-24T21:26:20.084Z,12.27
2022-11-24T21:28:47.772Z,14.25
2022-11-24T21:31:20.578Z,13.60
2022-11-24T21:33:50.062Z,10.43
2022-11-24T21:36:22.152Z,13.18
2022-11-24T21:38:54.401Z,11.93
2022-11-24T21:41:22.259Z,8.23
2022-11-24T21:43:49.981Z,11.32
2022-11-24T21:46:17.710Z,13.00
2022-11-24T21:48:44.505Z,8.85
2022-11-24T21:51:19.851Z,8.38
2022-11-24T21:53:47.281Z,7.38
2022-11-24T21:56:19.123Z,11.73
2022-11-24T21:58:54.050Z,12.63
2022-11-24T22:01:23.055Z,13.35
2022-11-24T22:03:50.809Z,11.70
2022-11-24T22:06:19.300Z,13.48
2022-11-24T22:08:47.485Z,11.95
2022-11-24T22:11:16.197Z,11.05
2022-11-24T22:13:44.518Z,8.52
2022-11-24T22:16:13.829Z,13.80
2022-11-24T22:18:41.723Z,17.35
2022-11-24T22:21:12.121Z,13.05
2022-11-24T22:23:38.673Z,12.40
2022-11-24T22:26:07.859Z,15.18
2022-11-24T22:28:35.413Z,8.80
2022-11-24T22:31:13.861Z,12.45
2022-11-24T22:33:40.963Z,13.48
2022-11-24T22:36:08.144Z,21.77
2022-11-24T22:38:34.898Z,8.80
2022-11-24T22:41:09.518Z,7.75
2022-11-24T22:43:38.518Z,13.82
2022-11-24T22:46:11.096Z,18.35
2022-11-24T22:48:38.661Z,22.02
2022-11-24T22:51:08.273Z,13.55
2022-11-24T22:53:35.030Z,14.15
2022-11-24T22:56:10.174Z,10.88
2022-11-24T22:58:37.261Z,11.45
2022-11-24T23:01:24.114Z,12.38
2022-11-24T23:03:53.776Z,13.07
2022-11-24T23:06:23.242Z,14.55
2022-11-24T23:08:51.448Z,14.82
2022-11-24T23:11:25.873Z,23.42
2022-11-24T23:13:57.568Z,10.88
2022-11-24T23:16:24.914Z,10.98
2022-11-24T23:18:53.970Z,11.95
2022-11-24T23:21:29.402Z,10.95
2022-11-24T23:23:57.793Z,15.85
2022-11-24T23:26:27.520Z,14.57
2022-11-24T23:28:54.225Z,12.35
2022-11-24T23:31:24.348Z,13.40
2022-11-24T23:33:50.985Z,12.50
2022-11-24T23:36:19.833Z,13.95
2022-11-24T23:38:47.462Z,14.05
2022-11-24T23:41:19.708Z,13.07
2022-11-24T23:43:46.588Z,13.15
2022-11-24T23:46:21.789Z,13.55
2022-11-24T23:48:49.620Z,9.88
2022-11-24T23:51:19.476Z,7.07
2022-11-24T23:53:47.062Z,15.77
2022-11-24T23:56:17.553Z,13.35
2022-11-24T23:58:44.338Z,9.23
